Time;durP1;ratioP1;P1;durP2;ratioP2;P2;SDS_P1;SDS_P2;PMS_P1;PMS_P2;Temp;Humidity;BMP_temperature;BMP_pressure;BME280_temperature;BME280_humidity;BME280_pressure;Samples;Min_cycle;Max_cycle;Signal;HPM_P1;HPM_P2
2021/06/01 00:01:22;;;;;;;5.22;4.43;;;9.70;99.90;;;;;;4981246;28;20023;-73
2021/06/01 00:03:48;;;;;;;5.18;4.63;;;9.70;99.90;;;;;;4974815;28;20521;-73
2021/06/01 00:06:15;;;;;;;7.20;4.60;;;9.60;99.90;;;;;;4973877;28;20030;-73
2021/06/01 00:08:41;;;;;;;6.13;5.05;;;9.60;99.90;;;;;;4974399;28;20019;-73
2021/06/01 00:11:08;;;;;;;5.18;4.47;;;9.60;99.90;;;;;;4973299;28;20026;-73
2021/06/01 00:13:34;;;;;;;7.45;5.07;;;9.60;99.90;;;;;;4978428;28;20178;-73
2021/06/01 00:16:01;;;;;;;9.15;5.28;;;9.50;99.90;;;;;;4976723;28;20031;-73
2021/06/01 00:18:27;;;;;;;9.10;5.30;;;9.50;99.90;;;;;;4973559;28;20026;-72
2021/06/01 00:20:52;;;;;;;9.05;5.20;;;9.50;99.90;;;;;;4955663;28;20033;-73
2021/06/01 00:23:18;;;;;;;7.50;5.13;;;9.40;99.90;;;;;;4973835;28;20027;-73
2021/06/01 00:25:44;;;;;;;7.30;4.95;;;9.30;99.90;;;;;;4973656;28;20046;-72
2021/06/01 00:28:11;;;;;;;5.95;5.20;;;9.30;99.90;;;;;;4973693;28;20030;-72
2021/06/01 00:30:36;;;;;;;7.38;5.53;;;9.30;99.90;;;;;;4971682;28;20030;-73
2021/06/01 00:33:02;;;;;;;7.07;5.57;;;9.20;99.90;;;;;;4958957;28;20037;-74
2021/06/01 00:35:28;;;;;;;6.30;5.60;;;9.20;99.90;;;;;;4976824;28;20090;-72
2021/06/01 00:37:54;;;;;;;7.50;5.90;;;9.10;99.90;;;;;;4976775;28;20110;-73
2021/06/01 00:40:20;;;;;;;6.18;5.28;;;9.00;99.90;;;;;;4976608;28;20529;-74
2021/06/01 00:42:45;;;;;;;7.53;5.13;;;9.00;99.90;;;;;;4977048;28;20033;-72
2021/06/01 00:45:17;;;;;;;5.32;4.82;;;9.00;99.90;;;;;;4977347;28;20034;-73
2021/06/01 00:47:43;;;;;;;9.23;5.55;;;9.00;99.90;;;;;;4977242;28;20070;-73
2021/06/01 00:50:09;;;;;;;8.13;5.53;;;9.00;99.90;;;;;;4976578;28;20035;-73
2021/06/01 00:52:34;;;;;;;5.88;5.28;;;8.90;99.90;;;;;;4977296;28;20101;-73
2021/06/01 00:55:03;;;;;;;9.43;6.05;;;8.90;99.90;;;;;;4959380;28;20533;-73
2021/06/01 00:57:29;;;;;;;12.95;7.20;;;8.90;99.90;;;;;;4976972;28;20022;-73
2021/06/01 00:59:55;;;;;;;9.45;6.47;;;8.80;99.90;;;;;;4976402;28;20058;-73
2021/06/01 01:02:20;;;;;;;6.88;6.18;;;8.80;99.90;;;;;;4975537;28;20034;-73
2021/06/01 01:04:47;;;;;;;7.13;5.88;;;8.70;99.90;;;;;;4976743;28;20037;-73
2021/06/01 01:07:22;;;;;;;9.10;6.45;;;8.60;99.90;;;;;;4977036;28;20027;-73
2021/06/01 01:09:50;;;;;;;7.10;6.50;;;8.60;99.90;;;;;;4959881;28;20038;-73
2021/06/01 01:13:00;;;;;;;7.03;5.63;;;8.60;99.90;;;;;;4977515;28;20493;-73
2021/06/01 01:15:27;;;;;;;7.55;5.97;;;8.60;99.90;;;;;;4967159;28;20046;-73
2021/06/01 01:18:01;;;;;;;14.00;6.90;;;8.50;99.90;;;;;;4957686;28;20386;-74
2021/06/01 01:21:07;;;;;;;7.65;6.40;;;8.50;99.90;;;;;;4975936;28;20098;-73
2021/06/01 01:23:35;;;;;;;6.53;5.53;;;8.50;99.90;;;;;;4977179;28;20029;-73
2021/06/01 01:26:49;;;;;;;7.80;6.07;;;8.40;99.90;;;;;;4977304;28;20090;-73
2021/06/01 01:29:20;;;;;;;7.18;5.75;;;8.30;99.90;;;;;;4895001;29;20037;-73
2021/06/01 01:31:58;;;;;;;7.55;5.75;;;8.30;99.90;;;;;;4932570;28;20077;-73
2021/06/01 01:34:26;;;;;;;6.80;6.03;;;8.30;99.90;;;;;;4973091;28;20448;-73
2021/06/01 01:36:54;;;;;;;8.77;5.90;;;8.30;99.90;;;;;;4972632;28;20026;-73
2021/06/01 01:39:21;;;;;;;9.13;6.32;;;8.30;99.90;;;;;;4972726;28;20023;-73
2021/06/01 01:41:48;;;;;;;7.95;5.97;;;8.20;99.90;;;;;;4955591;28;20492;-73
2021/06/01 01:44:17;;;;;;;7.43;6.43;;;8.20;99.90;;;;;;4972726;28;20042;-73
2021/06/01 01:49:21;;;;;;;6.72;6.07;;;8.20;99.90;;;;;;4972569;28;20034;-73
2021/06/01 01:51:52;;;;;;;7.18;6.53;;;8.10;99.90;;;;;;4972309;28;20519;-72
2021/06/01 01:54:22;;;;;;;6.88;5.72;;;8.10;99.90;;;;;;4972717;28;20460;-73
2021/06/01 01:56:57;;;;;;;7.95;6.45;;;8.10;99.90;;;;;;4972397;28;20034;-72
2021/06/01 01:59:25;;;;;;;6.68;5.97;;;8.00;99.90;;;;;;4972049;28;20058;-73
2021/06/01 02:01:53;;;;;;;7.47;6.22;;;8.00;99.90;;;;;;4972506;28;20026;-74
2021/06/01 02:04:28;;;;;;;7.93;6.35;;;8.00;99.90;;;;;;4972197;28;20073;-72
2021/06/01 02:06:54;;;;;;;7.35;6.55;;;7.90;99.90;;;;;;4975769;28;20102;-73
2021/06/01 02:09:20;;;;;;;7.65;6.82;;;7.90;99.90;;;;;;4975693;28;20038;-74
2021/06/01 02:11:46;;;;;;;11.85;6.32;;;7.80;99.90;;;;;;4975571;28;20034;-72
2021/06/01 02:14:12;;;;;;;8.75;6.60;;;7.80;99.90;;;;;;4975767;28;20481;-73
2021/06/01 02:16:39;;;;;;;8.23;6.30;;;7.80;99.90;;;;;;4975629;28;20062;-73
2021/06/01 02:19:08;;;;;;;8.32;6.65;;;7.70;99.90;;;;;;4975498;28;20041;-72
2021/06/01 02:24:13;;;;;;;9.55;7.78;;;7.70;99.90;;;;;;4975605;28;20058;-72
2021/06/01 02:27:29;;;;;;;9.83;8.10;;;7.70;99.90;;;;;;4975724;28;20033;-72
2021/06/01 02:30:04;;;;;;;13.25;8.23;;;7.50;99.90;;;;;;4932144;28;20579;-72
2021/06/01 02:32:41;;;;;;;7.80;6.90;;;7.60;99.90;;;;;;4975263;28;20037;-71
2021/06/01 02:35:22;;;;;;;11.38;7.07;;;7.40;99.90;;;;;;4975241;28;20114;-72
2021/06/01 02:37:50;;;;;;;8.23;6.80;;;7.50;99.90;;;;;;4981550;28;20023;-72
2021/06/01 02:40:20;;;;;;;8.82;7.32;;;7.40;99.90;;;;;;4980955;28;20473;-73
2021/06/01 02:42:47;;;;;;;8.90;7.80;;;7.40;99.90;;;;;;4980430;28;20050;-72
2021/06/01 02:45:17;;;;;;;9.75;7.57;;;7.30;99.90;;;;;;4978750;28;20022;-72
2021/06/01 02:47:44;;;;;;;10.15;7.38;;;7.30;99.90;;;;;;4975919;28;20505;-72
2021/06/01 02:50:13;;;;;;;8.73;7.60;;;7.30;99.90;;;;;;4977514;28;20030;-72
2021/06/01 02:52:41;;;;;;;9.15;7.30;;;7.30;99.90;;;;;;4979736;28;20033;-72
2021/06/01 02:55:08;;;;;;;8.00;7.18;;;7.20;99.90;;;;;;4979098;28;20089;-72
2021/06/01 02:57:34;;;;;;;7.97;7.15;;;7.10;99.90;;;;;;4974172;28;20045;-73
2021/06/01 03:00:00;;;;;;;8.40;6.85;;;7.10;99.90;;;;;;4957119;28;20026;-72
2021/06/01 03:02:28;;;;;;;9.85;7.53;;;7.20;99.90;;;;;;4974861;28;20545;-72
2021/06/01 03:04:54;;;;;;;14.55;8.20;;;7.20;99.90;;;;;;4974951;28;20065;-72
2021/06/01 03:07:21;;;;;;;9.00;7.32;;;7.10;99.90;;;;;;4974868;28;20485;-72
2021/06/01 03:09:48;;;;;;;10.13;7.85;;;7.10;99.90;;;;;;4974390;28;20042;-72
2021/06/01 03:15:00;;;;;;;8.52;7.03;;;7.10;99.90;;;;;;4974901;28;20066;-73
2021/06/01 03:17:25;;;;;;;11.45;8.27;;;7.00;99.90;;;;;;4973880;28;20035;-72
2021/06/01 03:19:51;;;;;;;11.55;8.13;;;7.00;99.90;;;;;;4973846;28;20114;-73
2021/06/01 03:22:17;;;;;;;9.43;7.50;;;6.90;99.90;;;;;;4973692;28;20362;-72
2021/06/01 03:24:43;;;;;;;8.80;7.68;;;6.90;99.90;;;;;;4974337;28;20034;-72
2021/06/01 03:27:08;;;;;;;9.90;8.07;;;6.90;99.90;;;;;;4973993;28;20034;-72
2021/06/01 03:29:34;;;;;;;8.77;7.55;;;6.90;99.90;;;;;;4973779;28;20046;-72
2021/06/01 03:32:01;;;;;;;9.73;7.60;;;6.90;99.90;;;;;;4974312;28;20041;-73
2021/06/01 03:34:26;;;;;;;10.32;7.95;;;6.80;99.90;;;;;;4974083;28;20397;-72
2021/06/01 03:36:52;;;;;;;10.05;7.13;;;6.80;99.90;;;;;;4956852;28;20029;-73
2021/06/01 03:39:20;;;;;;;10.88;8.32;;;6.90;99.90;;;;;;4974128;28;20097;-72
2021/06/01 03:41:47;;;;;;;10.52;8.45;;;6.90;99.90;;;;;;4974048;28;20406;-73
2021/06/01 03:44:12;;;;;;;10.38;8.75;;;6.90;99.90;;;;;;4973972;28;20093;-72
2021/06/01 03:46:38;;;;;;;8.60;7.28;;;6.90;99.90;;;;;;4956539;28;20126;-73
2021/06/01 03:49:04;;;;;;;10.02;8.57;;;6.90;99.90;;;;;;4974087;28;20038;-72
2021/06/01 03:51:29;;;;;;;9.65;7.82;;;6.80;99.90;;;;;;4973000;28;20086;-72
2021/06/01 03:53:55;;;;;;;10.52;7.55;;;6.90;99.90;;;;;;4973970;28;20527;-72
2021/06/01 03:56:21;;;;;;;10.15;7.80;;;6.80;99.90;;;;;;4973854;28;20041;-72
2021/06/01 03:58:46;;;;;;;10.63;7.63;;;6.70;99.90;;;;;;4973731;28;20027;-72
2021/06/01 04:01:12;;;;;;;8.50;7.60;;;6.80;99.90;;;;;;4973221;28;20031;-72
2021/06/01 04:03:41;;;;;;;9.32;7.72;;;6.80;99.90;;;;;;4973287;28;20030;-72
2021/06/01 04:06:09;;;;;;;9.43;8.20;;;6.80;99.90;;;;;;4973530;28;20026;-72
2021/06/01 04:08:36;;;;;;;10.05;7.28;;;6.80;99.90;;;;;;4973839;28;20074;-72
2021/06/01 04:11:02;;;;;;;9.18;7.47;;;6.80;99.90;;;;;;4955627;28;20034;-73
2021/06/01 04:13:28;;;;;;;10.15;7.47;;;6.80;99.90;;;;;;4974741;28;20019;-72
2021/06/01 04:15:54;;;;;;;9.93;8.65;;;6.90;99.90;;;;;;4973694;28;20027;-72
2021/06/01 04:18:19;;;;;;;11.00;8.32;;;6.90;99.90;;;;;;4973322;28;20491;-72
2021/06/01 04:20:45;;;;;;;11.20;8.35;;;6.80;99.90;;;;;;4972825;28;20027;-73
2021/06/01 04:23:11;;;;;;;13.45;8.55;;;6.90;99.90;;;;;;4973414;28;20031;-72
2021/06/01 04:25:37;;;;;;;11.88;7.60;;;6.90;99.90;;;;;;4974581;28;20023;-72
2021/06/01 04:28:03;;;;;;;8.73;7.68;;;6.90;99.90;;;;;;4977245;28;20034;-73
2021/06/01 04:30:29;;;;;;;10.57;8.48;;;6.90;99.90;;;;;;4969305;28;20045;-73
2021/06/01 04:32:54;;;;;;;11.40;8.43;;;6.90;99.90;;;;;;4971811;28;20077;-72
2021/06/01 04:35:20;;;;;;;10.75;8.30;;;7.00;99.90;;;;;;4971729;28;20050;-72
2021/06/01 04:37:46;;;;;;;10.63;8.00;;;7.00;99.90;;;;;;4973494;28;20026;-72
2021/06/01 04:40:14;;;;;;;10.75;8.07;;;7.00;99.90;;;;;;4972481;28;20131;-73
2021/06/01 04:42:41;;;;;;;11.13;8.43;;;7.10;99.90;;;;;;4973465;28;20018;-71
2021/06/01 04:45:07;;;;;;;13.20;8.38;;;7.10;99.90;;;;;;4974512;28;20034;-71
2021/06/01 04:47:32;;;;;;;9.63;8.30;;;7.10;99.90;;;;;;4973979;28;20389;-72
2021/06/01 04:49:58;;;;;;;10.75;7.85;;;7.20;99.90;;;;;;4951129;29;20114;-73
2021/06/01 04:52:24;;;;;;;10.55;8.40;;;7.20;99.90;;;;;;4957278;28;20059;-72
2021/06/01 04:54:49;;;;;;;13.30;8.68;;;7.30;99.90;;;;;;4953688;29;20062;-73
2021/06/01 04:57:16;;;;;;;9.85;8.55;;;7.20;99.90;;;;;;4952614;29;20074;-73
2021/06/01 04:59:41;;;;;;;9.75;7.75;;;7.30;99.90;;;;;;4953310;29;20443;-73
2021/06/01 05:02:07;;;;;;;10.38;8.55;;;7.20;99.90;;;;;;4956346;28;20067;-72
2021/06/01 05:04:34;;;;;;;14.73;8.90;;;7.40;99.90;;;;;;4936936;29;20034;-73
2021/06/01 05:07:00;;;;;;;9.45;7.82;;;7.40;99.90;;;;;;4954921;29;20494;-72
2021/06/01 05:09:26;;;;;;;9.15;8.18;;;7.50;99.90;;;;;;4935920;29;20042;-74
2021/06/01 05:11:52;;;;;;;9.73;7.72;;;7.50;99.90;;;;;;4953874;28;20441;-77
2021/06/01 05:14:18;;;;;;;10.95;8.20;;;7.70;99.90;;;;;;4937748;29;20039;-75
2021/06/01 05:16:44;;;;;;;10.75;7.97;;;7.80;99.90;;;;;;4954150;29;20382;-75
2021/06/01 05:19:10;;;;;;;9.40;8.40;;;7.80;99.90;;;;;;4953638;29;20031;-76
2021/06/01 05:21:35;;;;;;;10.77;8.50;;;7.90;99.90;;;;;;4957419;28;20024;-74
2021/06/01 05:24:01;;;;;;;9.23;8.30;;;8.10;99.90;;;;;;4972905;28;20433;-73
2021/06/01 05:26:27;;;;;;;11.10;8.65;;;8.10;99.90;;;;;;4956929;28;20130;-74
2021/06/01 05:28:53;;;;;;;9.82;8.23;;;8.20;99.90;;;;;;4973441;28;20031;-74
2021/06/01 05:31:26;;;;;;;10.35;7.68;;;8.20;99.90;;;;;;4973130;28;20058;-72
2021/06/01 05:34:04;;;;;;;9.93;8.13;;;8.30;99.90;;;;;;4973867;28;20023;-75
2021/06/01 05:36:30;;;;;;;10.77;8.68;;;8.40;99.90;;;;;;4974740;28;20049;-74
2021/06/01 05:38:55;;;;;;;14.02;9.20;;;8.50;99.90;;;;;;4973857;28;20461;-74
2021/06/01 05:41:21;;;;;;;14.30;8.82;;;8.50;99.90;;;;;;4976114;28;20098;-72
2021/06/01 05:43:47;;;;;;;9.40;8.32;;;8.60;99.90;;;;;;4977745;28;20378;-76
2021/06/01 05:46:13;;;;;;;10.88;9.07;;;8.60;99.90;;;;;;4976207;28;20023;-73
2021/06/01 05:48:39;;;;;;;13.80;8.55;;;8.70;99.90;;;;;;4957183;29;20082;-76
2021/06/01 05:51:05;;;;;;;10.32;8.68;;;8.80;99.90;;;;;;4967093;28;20077;-75
2021/06/01 05:53:31;;;;;;;10.98;8.23;;;8.90;99.90;;;;;;4977397;28;20026;-74
2021/06/01 05:55:57;;;;;;;11.73;8.93;;;9.00;99.90;;;;;;4974204;28;20076;-74
2021/06/01 05:58:23;;;;;;;11.77;9.18;;;9.10;99.90;;;;;;4977831;28;20027;-73
2021/06/01 06:00:50;;;;;;;11.43;8.75;;;9.20;99.90;;;;;;4976804;28;20070;-72
2021/06/01 06:03:16;;;;;;;12.00;8.88;;;9.40;99.90;;;;;;4976207;23;20097;-74
2021/06/01 06:05:42;;;;;;;12.75;7.93;;;9.40;99.90;;;;;;4957361;29;20118;-73
2021/06/01 06:08:13;;;;;;;11.20;7.82;;;9.50;99.90;;;;;;4955777;29;20031;-71
2021/06/01 06:10:40;;;;;;;8.23;7.32;;;9.60;99.90;;;;;;4955360;29;20070;-71
2021/06/01 06:13:06;;;;;;;10.73;7.20;;;9.70;99.90;;;;;;4950891;28;20041;-72
2021/06/01 06:15:32;;;;;;;9.73;8.10;;;9.80;99.90;;;;;;4951201;29;20035;-72
2021/06/01 06:18:04;;;;;;;11.32;7.45;;;10.00;99.90;;;;;;4955916;29;20397;-72
2021/06/01 06:20:31;;;;;;;10.02;6.90;;;10.10;99.90;;;;;;4955472;29;20030;-72
2021/06/01 06:22:58;;;;;;;10.43;7.70;;;10.10;99.90;;;;;;4955740;29;20082;-72
2021/06/01 06:25:24;;;;;;;14.50;7.63;;;10.30;99.90;;;;;;4954138;29;20110;-71
2021/06/01 06:27:49;;;;;;;9.68;7.07;;;10.50;99.90;;;;;;4954757;29;20102;-72
2021/06/01 06:30:16;;;;;;;7.65;6.20;;;10.70;99.90;;;;;;4955291;29;20036;-72
2021/06/01 06:32:42;;;;;;;9.68;7.30;;;10.70;99.90;;;;;;4953490;29;20039;-72
2021/06/01 06:35:08;;;;;;;13.57;7.75;;;10.90;99.90;;;;;;4954493;29;20385;-72
2021/06/01 06:37:34;;;;;;;10.07;6.55;;;11.20;99.90;;;;;;4955248;28;20453;-72
2021/06/01 06:40:01;;;;;;;8.75;5.95;;;11.30;99.90;;;;;;4955374;29;20095;-73
2021/06/01 06:42:26;;;;;;;10.27;6.43;;;11.50;99.90;;;;;;4955525;29;20522;-72
2021/06/01 06:44:53;;;;;;;7.93;6.15;;;11.70;99.90;;;;;;4955317;29;20111;-72
2021/06/01 06:49:48;;;;;;;9.13;5.28;;;12.10;99.90;;;;;;4954990;29;20031;-73
2021/06/01 06:52:14;;;;;;;11.20;5.70;;;12.40;99.90;;;;;;4953685;28;20027;-72
2021/06/01 06:54:40;;;;;;;7.05;4.75;;;12.60;99.90;;;;;;4955065;29;20110;-73
2021/06/01 06:57:07;;;;;;;9.55;5.40;;;12.80;99.90;;;;;;4954676;29;20466;-73
2021/06/01 06:59:33;;;;;;;6.82;4.85;;;13.20;99.90;;;;;;4954388;29;20027;-72
2021/06/01 07:02:00;;;;;;;16.50;5.13;;;13.40;99.90;;;;;;4955285;29;20042;-72
2021/06/01 07:04:25;;;;;;;9.88;4.35;;;13.70;99.90;;;;;;4950548;29;20036;-73
2021/06/01 07:06:55;;;;;;;3.22;2.92;;;13.90;99.90;;;;;;4935602;29;20083;-73
2021/06/01 07:09:20;;;;;;;4.65;3.20;;;14.10;99.90;;;;;;4934323;29;20028;-72
2021/06/01 07:11:46;;;;;;;6.07;3.08;;;14.40;99.90;;;;;;4935810;29;20046;-74
2021/06/01 07:14:18;;;;;;;3.13;2.67;;;14.70;99.90;;;;;;4935860;29;20028;-73
2021/06/01 07:16:44;;;;;;;3.00;2.28;;;15.10;99.90;;;;;;4934168;29;20027;-74
2021/06/01 07:19:12;;;;;;;8.85;2.65;;;15.40;99.90;;;;;;4935821;29;20036;-73
2021/06/01 07:21:38;;;;;;;4.20;2.20;;;15.70;99.90;;;;;;4935425;29;20023;-73
2021/06/01 07:24:07;;;;;;;4.10;2.25;;;15.90;99.90;;;;;;4935853;29;20028;-74
2021/06/01 07:26:33;;;;;;;4.03;2.55;;;16.10;99.90;;;;;;4935602;29;20036;-72
2021/06/01 07:28:59;;;;;;;3.55;2.10;;;16.20;99.90;;;;;;4935509;29;20036;-73
2021/06/01 07:31:25;;;;;;;4.57;2.03;;;16.40;99.90;;;;;;4935058;29;20039;-72
2021/06/01 07:33:51;;;;;;;6.30;2.47;;;16.60;99.90;;;;;;4937978;29;20039;-73
2021/06/01 07:36:18;;;;;;;5.78;2.00;;;16.80;99.90;;;;;;4952927;29;20031;-73
2021/06/01 07:38:44;;;;;;;3.13;2.20;;;17.00;99.90;;;;;;4954276;29;20055;-72
2021/06/01 07:41:10;;;;;;;4.40;2.42;;;17.10;98.40;;;;;;4953857;29;20038;-72
2021/06/01 07:43:36;;;;;;;2.67;2.03;;;17.10;97.80;;;;;;4954392;28;20027;-73
2021/06/01 07:46:03;;;;;;;2.75;2.10;;;17.20;97.00;;;;;;4954082;29;20037;-71
2021/06/01 07:48:31;;;;;;;4.22;2.28;;;17.30;97.80;;;;;;4952760;29;20456;-72
2021/06/01 07:50:57;;;;;;;4.30;2.13;;;17.50;96.40;;;;;;4938371;29;20383;-73
2021/06/01 07:53:22;;;;;;;5.53;2.08;;;17.60;96.40;;;;;;4934828;29;20123;-73
2021/06/01 07:55:48;;;;;;;3.75;2.13;;;17.80;94.90;;;;;;4934522;29;20070;-74
2021/06/01 07:58:14;;;;;;;4.75;2.15;;;18.00;95.30;;;;;;4935029;29;20060;-72
2021/06/01 08:00:40;;;;;;;3.17;1.98;;;18.10;94.20;;;;;;4933222;29;20028;-72
2021/06/01 08:03:06;;;;;;;4.45;2.05;;;18.30;95.20;;;;;;4944090;28;20510;-73
2021/06/01 08:05:32;;;;;;;2.08;1.80;;;18.70;97.80;;;;;;4953491;29;20102;-73
2021/06/01 08:07:58;;;;;;;2.42;1.95;;;19.00;94.30;;;;;;4954010;29;20074;-73
2021/06/01 08:10:24;;;;;;;3.35;1.95;;;19.10;95.10;;;;;;4952092;29;20042;-73
2021/06/01 08:12:52;;;;;;;2.42;1.90;;;19.40;93.50;;;;;;4953603;28;20023;-74
2021/06/01 08:15:20;;;;;;;2.35;2.10;;;19.50;92.20;;;;;;4953852;28;20486;-73
2021/06/01 08:17:46;;;;;;;2.55;1.90;;;19.50;90.80;;;;;;4953331;29;20086;-72
2021/06/01 08:22:58;;;;;;;2.35;1.85;;;19.40;88.20;;;;;;4962169;29;20059;-74
2021/06/01 08:25:25;;;;;;;4.80;1.98;;;19.50;88.50;;;;;;4958121;28;20024;-73
2021/06/01 08:27:51;;;;;;;1.90;1.80;;;19.70;89.60;;;;;;4954364;28;20110;-74
2021/06/01 08:30:18;;;;;;;2.75;1.70;;;19.70;85.10;;;;;;4953320;28;20031;-73
2021/06/01 08:32:43;;;;;;;2.95;1.77;;;19.90;84.00;;;;;;4953739;29;20027;-74
2021/06/01 08:35:10;;;;;;;1.77;1.67;;;20.10;81.60;;;;;;4952203;29;20023;-74
2021/06/01 08:37:35;;;;;;;2.30;1.73;;;20.30;78.20;;;;;;4951772;29;20051;-74
2021/06/01 08:40:02;;;;;;;1.77;1.67;;;20.40;76.10;;;;;;4952849;29;20046;-74
2021/06/01 08:42:27;;;;;;;2.10;1.48;;;20.40;73.90;;;;;;4953374;29;20054;-74
2021/06/01 08:44:53;;;;;;;6.00;1.70;;;20.80;74.80;;;;;;4952994;29;20470;-73
2021/06/01 08:47:20;;;;;;;1.83;1.50;;;21.00;68.10;;;;;;4952973;28;20110;-73
2021/06/01 08:49:47;;;;;;;3.40;1.60;;;21.00;67.80;;;;;;4951367;28;20042;-73
2021/06/01 08:52:13;;;;;;;3.85;1.50;;;21.00;68.50;;;;;;4953115;29;20031;-74
2021/06/01 08:54:39;;;;;;;1.88;1.38;;;21.30;70.60;;;;;;4953283;29;20123;-74
2021/06/01 08:57:06;;;;;;;3.17;1.58;;;21.60;66.60;;;;;;4952547;28;20466;-73
2021/06/01 08:59:33;;;;;;;2.97;1.40;;;22.00;64.10;;;;;;4952603;29;20023;-74
2021/06/01 09:01:59;;;;;;;2.70;1.80;;;22.20;61.50;;;;;;4952886;29;20027;-74
2021/06/01 09:04:25;;;;;;;2.03;1.70;;;22.10;58.60;;;;;;4953205;29;20409;-73
2021/06/01 09:07:01;;;;;;;1.48;1.30;;;22.10;61.50;;;;;;4952962;28;20031;-72
2021/06/01 09:23:00;;;;;;;1.60;1.15;;;23.00;57.50;;;;;;4952938;29;20027;-72
2021/06/01 09:25:37;;;;;;;1.77;1.50;;;23.00;56.40;;;;;;4950095;29;20106;-73
2021/06/01 09:28:05;;;;;;;1.58;1.40;;;23.10;55.40;;;;;;4950734;29;20339;-74
2021/06/01 09:30:34;;;;;;;1.73;1.30;;;22.90;55.40;;;;;;4952157;29;20062;-73
2021/06/01 09:33:01;;;;;;;1.40;1.30;;;23.20;55.60;;;;;;4952650;29;20219;-73
2021/06/01 09:35:50;;;;;;;3.75;1.40;;;23.50;54.20;;;;;;4952044;29;20054;-75
2021/06/01 09:38:18;;;;;;;1.48;1.23;;;23.40;53.10;;;;;;4952519;29;20449;-74
2021/06/01 09:40:45;;;;;;;1.27;1.20;;;22.80;54.80;;;;;;4950968;29;20114;-74
2021/06/01 09:43:15;;;;;;;3.30;1.40;;;23.00;53.60;;;;;;4952759;28;20371;-72
2021/06/01 09:45:44;;;;;;;3.47;1.60;;;23.40;52.30;;;;;;4952316;28;20019;-73
2021/06/01 09:48:11;;;;;;;1.35;1.25;;;23.60;52.50;;;;;;4952244;28;20039;-73
2021/06/01 09:55:48;;;;;;;1.52;1.33;;;25.10;51.50;;;;;;4951924;29;20545;-72
2021/06/01 09:58:23;;;;;;;1.40;1.27;;;24.80;50.00;;;;;;4953009;28;20032;-74
2021/06/01 10:00:49;;;;;;;1.85;1.10;;;25.10;50.20;;;;;;4952872;29;20031;-73
2021/06/01 10:03:25;;;;;;;1.70;1.50;;;24.70;51.40;;;;;;4952014;29;20114;-73
2021/06/01 10:05:57;;;;;;;4.05;1.40;;;24.20;50.80;;;;;;4951810;28;20031;-73
2021/06/01 10:08:25;;;;;;;4.80;1.20;;;24.00;50.00;;;;;;4950869;29;20102;-74
2021/06/01 10:11:03;;;;;;;3.00;1.60;;;23.70;49.20;;;;;;4950222;29;20027;-73
2021/06/01 10:13:31;;;;;;;1.88;1.60;;;24.10;51.70;;;;;;4951442;28;20036;-72
2021/06/01 10:16:00;;;;;;;3.33;1.52;;;24.30;50.20;;;;;;4950929;29;20035;-71
2021/06/01 10:18:30;;;;;;;3.22;1.42;;;24.00;49.50;;;;;;4950954;28;20085;-71
2021/06/01 10:21:00;;;;;;;5.78;1.95;;;24.00;51.80;;;;;;4950682;29;20110;-71
2021/06/01 10:23:37;;;;;;;3.67;1.50;;;23.60;49.80;;;;;;4951229;28;20489;-71
2021/06/01 10:26:05;;;;;;;1.65;1.55;;;23.80;51.70;;;;;;4951490;28;20070;-73
2021/06/01 10:28:34;;;;;;;3.95;1.33;;;24.30;51.20;;;;;;4953237;29;20035;-71
2021/06/01 10:31:01;;;;;;;3.90;1.42;;;24.30;50.90;;;;;;4952963;29;20034;-72
2021/06/01 10:33:35;;;;;;;2.13;1.27;;;24.20;49.70;;;;;;4953858;28;20474;-73
2021/06/01 10:50:23;;;;;;;3.25;1.08;;;25.10;49.90;;;;;;4944648;29;20085;-74
2021/06/01 10:53:11;;;;;;;3.88;1.60;;;24.90;49.40;;;;;;4954117;29;20374;-73
2021/06/01 10:56:02;;;;;;;5.25;1.48;;;24.80;49.60;;;;;;4953999;29;20027;-73
2021/06/01 10:58:41;;;;;;;1.95;1.23;;;25.20;49.70;;;;;;4952481;29;20109;-74
2021/06/01 11:04:07;;;;;;;4.03;1.60;;;25.30;48.80;;;;;;4916595;29;1110391;-74
2021/06/01 11:06:57;;;;;;;2.38;1.35;;;25.20;47.90;;;;;;4953441;29;20086;-73
2021/06/01 11:09:36;;;;;;;1.90;1.40;;;25.00;49.30;;;;;;4954941;29;20053;-74
2021/06/01 11:12:26;;;;;;;2.30;1.27;;;25.40;49.90;;;;;;4953839;29;20019;-73
2021/06/01 11:14:55;;;;;;;2.17;1.65;;;25.90;50.30;;;;;;4955434;29;20390;-72
2021/06/01 11:17:47;;;;;;;2.72;1.50;;;25.90;49.30;;;;;;4955258;29;20117;-72
2021/06/01 11:20:20;;;;;;;1.83;1.45;;;26.40;50.50;;;;;;4947385;29;20432;-73
2021/06/01 11:33:26;;;;;;;2.63;1.80;;;26.40;48.00;;;;;;4956056;29;20066;-72
2021/06/01 11:36:01;;;;;;;1.77;1.52;;;26.20;48.00;;;;;;4955207;29;20034;-74
2021/06/01 11:43:47;;;;;;;1.88;1.17;;;26.70;49.90;;;;;;4954341;28;20031;-72
2021/06/01 11:51:30;;;;;;;7.35;1.65;;;27.70;46.60;;;;;;4935114;29;20028;-72
2021/06/01 11:54:08;;;;;;;1.92;1.73;;;27.70;47.20;;;;;;4938877;29;20540;-74
2021/06/01 11:56:36;;;;;;;4.43;1.38;;;28.00;48.40;;;;;;4950914;29;20059;-72
2021/06/01 12:18:42;;;;;;;2.65;1.45;;;28.50;43.90;;;;;;5000472;28;20104;-72
2021/06/01 12:21:17;;;;;;;2.83;1.30;;;28.50;45.60;;;;;;4994525;28;20037;-73
2021/06/01 12:23:56;;;;;;;4.22;1.60;;;28.50;44.00;;;;;;4978066;28;20449;-73
2021/06/01 12:26:27;;;;;;;2.60;1.58;;;28.40;43.20;;;;;;4995039;28;20113;-73
2021/06/01 12:32:00;;;;;;;4.70;1.63;;;28.80;44.40;;;;;;4994669;28;20128;-73
2021/06/01 12:34:43;;;;;;;1.42;1.20;;;28.70;43.00;;;;;;4976853;28;20018;-72
2021/06/01 12:42:25;;;;;;;2.30;1.20;;;28.20;43.60;;;;;;4994845;28;20038;-73
2021/06/01 12:44:52;;;;;;;2.53;1.30;;;28.10;43.90;;;;;;4994068;28;20034;-77
2021/06/01 13:20:40;;;;;;;1.40;1.30;;;28.80;41.60;;;;;;4992763;28;20033;-76
2021/06/01 13:39:58;;;;;;;1.52;1.30;;;29.00;42.70;;;;;;4993291;28;20109;-76
2021/06/01 13:50:41;;;;;;;1.10;1.10;;;28.60;42.50;;;;;;4992585;28;20035;-78
2021/06/01 13:56:05;;;;;;;2.67;1.23;;;29.40;39.60;;;;;;5012820;28;20041;-77
2021/06/01 13:58:45;;;;;;;1.35;1.25;;;29.70;40.00;;;;;;4993994;28;20037;-78
2021/06/01 14:01:40;;;;;;;3.33;1.30;;;29.50;41.10;;;;;;4993479;28;20077;-77
2021/06/01 14:10:23;;;;;;;2.30;1.60;;;28.70;42.30;;;;;;4973411;28;20515;-73
2021/06/01 15:51:05;;;;;;;2.72;1.30;;;28.50;42.60;;;;;;5018640;28;20040;-74
2021/06/01 15:53:48;;;;;;;3.78;1.90;;;28.00;44.00;;;;;;5018158;28;20049;-76
2021/06/01 16:13:25;;;;;;;2.25;1.55;;;27.70;45.10;;;;;;5008149;28;20033;-79
2021/06/01 16:21:37;;;;;;;2.25;1.58;;;27.80;43.30;;;;;;5002616;28;20054;-78
2021/06/01 16:43:16;;;;;;;2.20;1.60;;;27.00;45.90;;;;;;4994383;28;20038;-75
2021/06/01 17:05:02;;;;;;;1.67;1.30;;;25.30;48.80;;;;;;4995175;28;20077;-76
2021/06/01 17:13:20;;;;;;;3.33;1.55;;;24.70;48.40;;;;;;5000499;28;20427;-76
2021/06/01 17:15:49;;;;;;;3.10;1.73;;;24.60;47.90;;;;;;4995730;28;20097;-76
2021/06/01 17:37:06;;;;;;;2.70;2.05;;;23.80;50.50;;;;;;5006124;28;20088;-76
2021/06/01 17:39:32;;;;;;;3.10;1.98;;;23.50;49.80;;;;;;5005649;28;20058;-76
2021/06/01 17:42:00;;;;;;;1.77;1.65;;;23.40;50.50;;;;;;4985019;28;20042;-77
2021/06/01 17:44:29;;;;;;;4.63;1.70;;;23.30;51.30;;;;;;5005746;28;20026;-76
2021/06/01 17:47:00;;;;;;;3.58;1.70;;;23.20;51.70;;;;;;5012649;28;20022;-79
2021/06/01 17:49:30;;;;;;;4.73;1.80;;;23.20;52.50;;;;;;5005690;28;20030;-78
2021/06/01 17:51:57;;;;;;;4.40;1.90;;;23.10;52.40;;;;;;5009045;28;20387;-77
2021/06/01 17:54:30;;;;;;;4.18;1.80;;;23.10;52.70;;;;;;4986681;28;20166;-79
2021/06/01 17:56:57;;;;;;;4.10;1.95;;;23.10;52.20;;;;;;5002187;28;20113;-77
2021/06/01 17:59:24;;;;;;;2.08;1.60;;;22.80;52.40;;;;;;4983325;28;20019;-75
2021/06/01 18:01:54;;;;;;;3.15;1.70;;;22.90;52.10;;;;;;5005744;28;20042;-78
2021/06/01 18:04:23;;;;;;;1.92;1.63;;;22.70;53.10;;;;;;5002167;28;20050;-76
2021/06/01 18:07:03;;;;;;;2.22;1.70;;;22.80;55.20;;;;;;4987321;28;20495;-77
2021/06/01 19:42:36;;;;;;;3.33;2.08;;;17.50;74.40;;;;;;4997130;28;20550;-77
2021/06/01 19:50:39;;;;;;;2.88;1.88;;;17.10;76.90;;;;;;4998440;28;20069;-77
2021/06/01 19:53:05;;;;;;;;;;;17.00;76.60;;;;;;4981669;28;20559;-76
2021/06/01 19:55:32;;;;;;;3.63;1.95;;;16.90;77.80;;;;;;4994341;28;19940;-76
2021/06/01 19:57:57;;;;;;;4.10;2.20;;;16.90;78.30;;;;;;4998842;28;20396;-79
2021/06/01 20:00:25;;;;;;;2.72;2.42;;;16.90;78.30;;;;;;4996529;28;20038;-79
2021/06/01 20:02:51;;;;;;;5.22;2.20;;;16.80;78.70;;;;;;4977831;28;20034;-72
2021/06/01 20:05:18;;;;;;;2.40;2.20;;;16.70;79.60;;;;;;4993154;28;20022;-72
2021/06/01 20:07:45;;;;;;;3.92;2.03;;;16.70;80.00;;;;;;4993895;28;20030;-75
2021/06/01 20:10:14;;;;;;;2.65;2.03;;;16.60;80.70;;;;;;4975774;28;20033;-76
2021/06/01 20:12:40;;;;;;;4.57;2.38;;;16.50;80.20;;;;;;4993668;28;20041;-77
2021/06/01 20:15:08;;;;;;;3.30;2.20;;;16.40;81.50;;;;;;4992724;28;20026;-75
2021/06/01 20:17:39;;;;;;;3.63;2.40;;;16.30;81.50;;;;;;4976831;28;20065;-76
2021/06/01 20:20:08;;;;;;;3.00;2.30;;;16.20;81.80;;;;;;4993369;28;20030;-75
2021/06/01 20:22:37;;;;;;;2.25;2.03;;;16.10;82.10;;;;;;4993587;28;20077;-72
2021/06/01 20:25:04;;;;;;;3.13;2.20;;;16.00;82.90;;;;;;4992941;28;20026;-72
2021/06/01 20:27:33;;;;;;;2.30;2.10;;;15.90;83.80;;;;;;4993359;28;20031;-76